sensor_id;sensor_type;location;lat;lon;timestamp;P1;durP1;ratioP1;P2;durP2;ratioP2
38238;SDS011;24035;48.900;9.188;2022-11-30T00:00:17;24.77;;;10.90;;
38238;SDS011;24035;48.900;9.188;2022-11-30T00:02:45;18.42;;;9.95;;
38238;SDS011;24035;48.900;9.188;2022-11-30T00:05:13;22.88;;;10.85;;
38238;SDS011;24035;48.900;9.188;2022-11-30T00:07:39;24.17;;;10.25;;
38238;SDS011;24035;48.900;9.188;2022-11-30T00:10:05;20.02;;;9.35;;
38238;SDS011;24035;48.900;9.188;2022-11-30T00:12:31;25.27;;;10.32;;
38238;SDS011;24035;48.900;9.188;2022-11-30T00:14:57;23.33;;;9.95;;
38238;SDS011;24035;48.900;9.188;2022-11-30T00:17:23;27.13;;;10.55;;
38238;SDS011;24035;48.900;9.188;2022-11-30T00:19:49;23.35;;;11.45;;
38238;SDS011;24035;48.900;9.188;2022-11-30T00:22:15;21.65;;;10.95;;
38238;SDS011;24035;48.900;9.188;2022-11-30T00:24:40;26.55;;;10.70;;
38238;SDS011;24035;48.900;9.188;2022-11-30T00:27:06;23.60;;;10.50;;
38238;SDS011;24035;48.900;9.188;2022-11-30T00:29:32;20.58;;;10.68;;
38238;SDS011;24035;48.900;9.188;2022-11-30T00:31:58;20.60;;;10.45;;
38238;SDS011;24035;48.900;9.188;2022-11-30T00:34:23;23.50;;;10.48;;
38238;SDS011;24035;48.900;9.188;2022-11-30T00:36:49;20.17;;;10.43;;
38238;SDS011;24035;48.900;9.188;2022-11-30T00:39:15;24.23;;;11.48;;
38238;SDS011;24035;48.900;9.188;2022-11-30T00:41:41;24.92;;;10.90;;
38238;SDS011;24035;48.900;9.188;2022-11-30T00:44:06;26.27;;;11.32;;
38238;SDS011;24035;48.900;9.188;2022-11-30T00:46:32;23.70;;;10.52;;
38238;SDS011;24035;48.900;9.188;2022-11-30T00:48:58;24.23;;;10.43;;
38238;SDS011;24035;48.900;9.188;2022-11-30T00:51:23;23.60;;;10.48;;
38238;SDS011;24035;48.900;9.188;2022-11-30T00:53:49;26.52;;;11.38;;
38238;SDS011;24035;48.900;9.188;2022-11-30T00:56:15;23.50;;;10.60;;
38238;SDS011;24035;48.900;9.188;2022-11-30T00:58:41;23.48;;;10.82;;
38238;SDS011;24035;48.900;9.188;2022-11-30T01:01:06;22.60;;;10.35;;
38238;SDS011;24035;48.900;9.188;2022-11-30T01:03:33;24.27;;;11.30;;
38238;SDS011;24035;48.900;9.188;2022-11-30T01:06:05;23.08;;;10.77;;
38238;SDS011;24035;48.900;9.188;2022-11-30T01:08:33;21.92;;;10.52;;
38238;SDS011;24035;48.900;9.188;2022-11-30T01:11:11;25.75;;;10.38;;
38238;SDS011;24035;48.900;9.188;2022-11-30T01:13:47;23.02;;;10.20;;
38238;SDS011;24035;48.900;9.188;2022-11-30T01:16:15;21.25;;;10.57;;
38238;SDS011;24035;48.900;9.188;2022-11-30T01:18:43;23.65;;;9.93;;
38238;SDS011;24035;48.900;9.188;2022-11-30T01:21:10;22.27;;;10.60;;
38238;SDS011;24035;48.900;9.188;2022-11-30T01:23:39;26.48;;;10.70;;
38238;SDS011;24035;48.900;9.188;2022-11-30T01:26:05;24.33;;;10.40;;
38238;SDS011;24035;48.900;9.188;2022-11-30T01:28:31;22.67;;;9.45;;
38238;SDS011;24035;48.900;9.188;2022-11-30T01:30:58;25.23;;;9.98;;
38238;SDS011;24035;48.900;9.188;2022-11-30T01:33:25;22.40;;;10.30;;
38238;SDS011;24035;48.900;9.188;2022-11-30T01:36:04;19.83;;;10.38;;
38238;SDS011;24035;48.900;9.188;2022-11-30T01:38:34;21.08;;;10.43;;
38238;SDS011;24035;48.900;9.188;2022-11-30T01:41:05;23.73;;;10.50;;
38238;SDS011;24035;48.900;9.188;2022-11-30T01:43:52;17.98;;;9.43;;
38238;SDS011;24035;48.900;9.188;2022-11-30T01:54:12;24.05;;;9.90;;
38238;SDS011;24035;48.900;9.188;2022-11-30T01:56:41;24.60;;;10.50;;
38238;SDS011;24035;48.900;9.188;2022-11-30T01:59:13;20.90;;;9.98;;
38238;SDS011;24035;48.900;9.188;2022-11-30T02:01:39;20.25;;;9.32;;
38238;SDS011;24035;48.900;9.188;2022-11-30T02:04:07;25.20;;;10.18;;
38238;SDS011;24035;48.900;9.188;2022-11-30T02:06:43;19.85;;;8.90;;
38238;SDS011;24035;48.900;9.188;2022-11-30T02:09:10;23.20;;;10.55;;
38238;SDS011;24035;48.900;9.188;2022-11-30T02:11:38;24.50;;;10.60;;
38238;SDS011;24035;48.900;9.188;2022-11-30T02:22:28;24.98;;;8.88;;
38238;SDS011;24035;48.900;9.188;2022-11-30T02:30:32;24.88;;;9.27;;
38238;SDS011;24035;48.900;9.188;2022-11-30T02:33:10;19.58;;;9.35;;
38238;SDS011;24035;48.900;9.188;2022-11-30T02:35:48;18.50;;;10.15;;
38238;SDS011;24035;48.900;9.188;2022-11-30T02:38:22;22.45;;;10.27;;
38238;SDS011;24035;48.900;9.188;2022-11-30T02:40:50;20.27;;;10.43;;
38238;SDS011;24035;48.900;9.188;2022-11-30T02:43:17;24.55;;;10.95;;
38238;SDS011;24035;48.900;9.188;2022-11-30T02:51:30;20.52;;;9.60;;
38238;SDS011;24035;48.900;9.188;2022-11-30T02:53:57;18.70;;;9.25;;
38238;SDS011;24035;48.900;9.188;2022-11-30T02:56:23;18.80;;;8.98;;
38238;SDS011;24035;48.900;9.188;2022-11-30T02:58:50;19.50;;;9.43;;
38238;SDS011;24035;48.900;9.188;2022-11-30T03:01:16;20.70;;;9.63;;
38238;SDS011;24035;48.900;9.188;2022-11-30T03:03:42;22.55;;;10.13;;
38238;SDS011;24035;48.900;9.188;2022-11-30T03:06:09;16.67;;;8.88;;
38238;SDS011;24035;48.900;9.188;2022-11-30T03:08:35;18.00;;;9.18;;
38238;SDS011;24035;48.900;9.188;2022-11-30T03:11:01;18.65;;;8.32;;
38238;SDS011;24035;48.900;9.188;2022-11-30T03:13:31;17.80;;;8.50;;
38238;SDS011;24035;48.900;9.188;2022-11-30T03:16:03;18.60;;;8.27;;
38238;SDS011;24035;48.900;9.188;2022-11-30T03:18:32;19.73;;;8.98;;
38238;SDS011;24035;48.900;9.188;2022-11-30T03:20:58;20.20;;;9.40;;
38238;SDS011;24035;48.900;9.188;2022-11-30T03:23:24;19.95;;;8.95;;
38238;SDS011;24035;48.900;9.188;2022-11-30T03:25:49;20.75;;;9.02;;
38238;SDS011;24035;48.900;9.188;2022-11-30T03:28:15;21.48;;;9.45;;
38238;SDS011;24035;48.900;9.188;2022-11-30T03:30:46;18.40;;;9.25;;
38238;SDS011;24035;48.900;9.188;2022-11-30T03:33:13;17.85;;;8.73;;
38238;SDS011;24035;48.900;9.188;2022-11-30T03:35:39;17.25;;;8.65;;
38238;SDS011;24035;48.900;9.188;2022-11-30T03:38:04;19.70;;;9.27;;
38238;SDS011;24035;48.900;9.188;2022-11-30T03:40:30;19.30;;;8.90;;
38238;SDS011;24035;48.900;9.188;2022-11-30T03:42:56;20.00;;;8.73;;
38238;SDS011;24035;48.900;9.188;2022-11-30T03:45:21;19.52;;;8.57;;
38238;SDS011;24035;48.900;9.188;2022-11-30T03:47:47;15.50;;;7.90;;
38238;SDS011;24035;48.900;9.188;2022-11-30T03:50:13;18.20;;;8.15;;
38238;SDS011;24035;48.900;9.188;2022-11-30T03:52:39;16.73;;;8.40;;
38238;SDS011;24035;48.900;9.188;2022-11-30T03:55:05;16.02;;;7.93;;
38238;SDS011;24035;48.900;9.188;2022-11-30T03:57:31;16.17;;;7.68;;
38238;SDS011;24035;48.900;9.188;2022-11-30T03:59:56;19.33;;;8.00;;
38238;SDS011;24035;48.900;9.188;2022-11-30T04:02:22;17.27;;;8.50;;
38238;SDS011;24035;48.900;9.188;2022-11-30T04:04:48;19.52;;;7.75;;
38238;SDS011;24035;48.900;9.188;2022-11-30T04:07:13;16.52;;;8.05;;
38238;SDS011;24035;48.900;9.188;2022-11-30T04:09:39;17.45;;;8.73;;
38238;SDS011;24035;48.900;9.188;2022-11-30T04:12:05;15.77;;;8.32;;
38238;SDS011;24035;48.900;9.188;2022-11-30T04:14:30;18.02;;;8.07;;
38238;SDS011;24035;48.900;9.188;2022-11-30T04:16:56;18.55;;;7.43;;
38238;SDS011;24035;48.900;9.188;2022-11-30T04:19:22;17.63;;;8.88;;
38238;SDS011;24035;48.900;9.188;2022-11-30T04:21:47;18.70;;;8.20;;
38238;SDS011;24035;48.900;9.188;2022-11-30T04:24:13;15.70;;;8.18;;
38238;SDS011;24035;48.900;9.188;2022-11-30T04:26:39;15.77;;;7.78;;
38238;SDS011;24035;48.900;9.188;2022-11-30T04:29:04;17.13;;;8.20;;
38238;SDS011;24035;48.900;9.188;2022-11-30T04:31:30;20.80;;;9.60;;
38238;SDS011;24035;48.900;9.188;2022-11-30T04:33:56;20.08;;;8.35;;
38238;SDS011;24035;48.900;9.188;2022-11-30T04:36:21;18.27;;;7.43;;
38238;SDS011;24035;48.900;9.188;2022-11-30T04:39:07;15.40;;;7.85;;
38238;SDS011;24035;48.900;9.188;2022-11-30T04:41:53;13.45;;;7.15;;
38238;SDS011;24035;48.900;9.188;2022-11-30T04:44:39;15.25;;;7.75;;
38238;SDS011;24035;48.900;9.188;2022-11-30T04:47:25;16.05;;;7.72;;
38238;SDS011;24035;48.900;9.188;2022-11-30T04:50:11;16.35;;;7.63;;
38238;SDS011;24035;48.900;9.188;2022-11-30T04:52:57;15.10;;;7.70;;
38238;SDS011;24035;48.900;9.188;2022-11-30T04:55:43;17.52;;;6.78;;
38238;SDS011;24035;48.900;9.188;2022-11-30T04:58:09;13.63;;;6.65;;
38238;SDS011;24035;48.900;9.188;2022-11-30T05:00:34;15.63;;;6.93;;
38238;SDS011;24035;48.900;9.188;2022-11-30T05:03:02;16.10;;;7.57;;
38238;SDS011;24035;48.900;9.188;2022-11-30T05:05:27;14.88;;;6.88;;
38238;SDS011;24035;48.900;9.188;2022-11-30T05:07:54;15.32;;;7.93;;
38238;SDS011;24035;48.900;9.188;2022-11-30T05:10:21;14.98;;;7.45;;
38238;SDS011;24035;48.900;9.188;2022-11-30T05:12:47;15.93;;;6.95;;
38238;SDS011;24035;48.900;9.188;2022-11-30T05:15:14;17.02;;;7.05;;
38238;SDS011;24035;48.900;9.188;2022-11-30T05:17:40;14.82;;;6.90;;
38238;SDS011;24035;48.900;9.188;2022-11-30T05:20:06;14.82;;;7.10;;
38238;SDS011;24035;48.900;9.188;2022-11-30T05:22:32;17.15;;;6.75;;
38238;SDS011;24035;48.900;9.188;2022-11-30T05:25:00;15.60;;;6.25;;
38238;SDS011;24035;48.900;9.188;2022-11-30T05:27:26;20.38;;;7.80;;
38238;SDS011;24035;48.900;9.188;2022-11-30T05:29:52;14.88;;;7.05;;
38238;SDS011;24035;48.900;9.188;2022-11-30T05:32:18;16.02;;;6.95;;
38238;SDS011;24035;48.900;9.188;2022-11-30T05:34:43;14.70;;;6.63;;
38238;SDS011;24035;48.900;9.188;2022-11-30T05:37:09;14.32;;;6.95;;
38238;SDS011;24035;48.900;9.188;2022-11-30T05:39:35;15.48;;;6.55;;
38238;SDS011;24035;48.900;9.188;2022-11-30T05:42:19;15.35;;;6.82;;
38238;SDS011;24035;48.900;9.188;2022-11-30T05:45:06;14.10;;;6.65;;
38238;SDS011;24035;48.900;9.188;2022-11-30T05:47:52;13.60;;;6.10;;
38238;SDS011;24035;48.900;9.188;2022-11-30T05:50:38;12.15;;;6.20;;
38238;SDS011;24035;48.900;9.188;2022-11-30T05:53:04;14.43;;;6.38;;
38238;SDS011;24035;48.900;9.188;2022-11-30T05:55:29;14.77;;;5.90;;
38238;SDS011;24035;48.900;9.188;2022-11-30T05:57:56;16.65;;;6.47;;
38238;SDS011;24035;48.900;9.188;2022-11-30T06:00:22;12.63;;;6.22;;
38238;SDS011;24035;48.900;9.188;2022-11-30T06:02:47;17.17;;;6.82;;
38238;SDS011;24035;48.900;9.188;2022-11-30T06:05:13;13.77;;;6.63;;
38238;SDS011;24035;48.900;9.188;2022-11-30T06:07:39;14.35;;;6.50;;
38238;SDS011;24035;48.900;9.188;2022-11-30T06:10:05;15.38;;;6.95;;
38238;SDS011;24035;48.900;9.188;2022-11-30T06:12:32;13.50;;;6.55;;
38238;SDS011;24035;48.900;9.188;2022-11-30T06:14:57;12.00;;;6.20;;
38238;SDS011;24035;48.900;9.188;2022-11-30T06:17:23;19.30;;;6.03;;
38238;SDS011;24035;48.900;9.188;2022-11-30T06:19:49;13.65;;;6.13;;
38238;SDS011;24035;48.900;9.188;2022-11-30T06:22:14;13.30;;;6.63;;
38238;SDS011;24035;48.900;9.188;2022-11-30T06:24:40;13.63;;;6.85;;
38238;SDS011;24035;48.900;9.188;2022-11-30T06:27:06;17.00;;;6.20;;
38238;SDS011;24035;48.900;9.188;2022-11-30T06:29:31;15.32;;;6.82;;
38238;SDS011;24035;48.900;9.188;2022-11-30T06:31:57;11.68;;;5.85;;
38238;SDS011;24035;48.900;9.188;2022-11-30T06:34:23;13.43;;;5.97;;
38238;SDS011;24035;48.900;9.188;2022-11-30T06:36:49;13.93;;;6.28;;
38238;SDS011;24035;48.900;9.188;2022-11-30T06:39:14;18.13;;;6.70;;
38238;SDS011;24035;48.900;9.188;2022-11-30T06:41:40;12.10;;;6.20;;
38238;SDS011;24035;48.900;9.188;2022-11-30T06:44:09;12.50;;;6.25;;
38238;SDS011;24035;48.900;9.188;2022-11-30T06:46:35;10.30;;;6.13;;
38238;SDS011;24035;48.900;9.188;2022-11-30T06:49:01;13.02;;;5.65;;
38238;SDS011;24035;48.900;9.188;2022-11-30T06:51:27;14.70;;;6.63;;
38238;SDS011;24035;48.900;9.188;2022-11-30T06:53:53;12.95;;;6.07;;
38238;SDS011;24035;48.900;9.188;2022-11-30T06:56:18;13.63;;;6.25;;
38238;SDS011;24035;48.900;9.188;2022-11-30T06:58:44;14.10;;;6.03;;
38238;SDS011;24035;48.900;9.188;2022-11-30T07:01:11;11.93;;;6.10;;
38238;SDS011;24035;48.900;9.188;2022-11-30T07:03:39;12.00;;;5.75;;
38238;SDS011;24035;48.900;9.188;2022-11-30T07:06:07;17.35;;;6.70;;
38238;SDS011;24035;48.900;9.188;2022-11-30T07:08:37;15.02;;;7.00;;
38238;SDS011;24035;48.900;9.188;2022-11-30T07:11:03;10.60;;;6.05;;
38238;SDS011;24035;48.900;9.188;2022-11-30T07:13:30;15.85;;;6.47;;
38238;SDS011;24035;48.900;9.188;2022-11-30T07:15:59;14.32;;;5.90;;
38238;SDS011;24035;48.900;9.188;2022-11-30T07:18:28;11.27;;;5.80;;
38238;SDS011;24035;48.900;9.188;2022-11-30T07:20:57;13.43;;;5.50;;
38238;SDS011;24035;48.900;9.188;2022-11-30T07:23:26;13.10;;;5.38;;
38238;SDS011;24035;48.900;9.188;2022-11-30T07:26:11;14.55;;;5.65;;
38238;SDS011;24035;48.900;9.188;2022-11-30T07:28:42;12.70;;;5.40;;
38238;SDS011;24035;48.900;9.188;2022-11-30T07:31:16;14.30;;;5.50;;
38238;SDS011;24035;48.900;9.188;2022-11-30T07:33:47;10.70;;;4.80;;
38238;SDS011;24035;48.900;9.188;2022-11-30T07:36:13;11.95;;;5.70;;
38238;SDS011;24035;48.900;9.188;2022-11-30T07:38:41;12.55;;;5.25;;
38238;SDS011;24035;48.900;9.188;2022-11-30T07:41:07;11.18;;;5.55;;
38238;SDS011;24035;48.900;9.188;2022-11-30T07:43:33;11.27;;;5.68;;
38238;SDS011;24035;48.900;9.188;2022-11-30T07:45:59;13.73;;;6.07;;
38238;SDS011;24035;48.900;9.188;2022-11-30T07:48:25;11.30;;;5.32;;
38238;SDS011;24035;48.900;9.188;2022-11-30T07:50:51;11.88;;;5.53;;
38238;SDS011;24035;48.900;9.188;2022-11-30T07:53:16;9.63;;;4.93;;
38238;SDS011;24035;48.900;9.188;2022-11-30T07:55:42;10.23;;;4.82;;
38238;SDS011;24035;48.900;9.188;2022-11-30T07:58:09;9.15;;;4.80;;
38238;SDS011;24035;48.900;9.188;2022-11-30T08:00:38;11.23;;;5.00;;
38238;SDS011;24035;48.900;9.188;2022-11-30T08:03:04;16.98;;;5.78;;
38238;SDS011;24035;48.900;9.188;2022-11-30T08:05:30;10.57;;;5.30;;
38238;SDS011;24035;48.900;9.188;2022-11-30T08:07:55;12.32;;;5.63;;
38238;SDS011;24035;48.900;9.188;2022-11-30T08:10:21;11.55;;;5.15;;
38238;SDS011;24035;48.900;9.188;2022-11-30T08:12:48;11.15;;;5.45;;
38238;SDS011;24035;48.900;9.188;2022-11-30T08:15:14;11.00;;;4.75;;
38238;SDS011;24035;48.900;9.188;2022-11-30T08:17:40;10.57;;;5.30;;
38238;SDS011;24035;48.900;9.188;2022-11-30T08:20:07;10.48;;;5.50;;
38238;SDS011;24035;48.900;9.188;2022-11-30T08:22:34;12.73;;;5.57;;
38238;SDS011;24035;48.900;9.188;2022-11-30T08:25:00;11.55;;;5.45;;
38238;SDS011;24035;48.900;9.188;2022-11-30T08:27:26;9.52;;;5.07;;
38238;SDS011;24035;48.900;9.188;2022-11-30T08:29:54;11.02;;;4.85;;
38238;SDS011;24035;48.900;9.188;2022-11-30T08:32:20;10.02;;;4.47;;
38238;SDS011;24035;48.900;9.188;2022-11-30T08:34:46;11.30;;;5.30;;
38238;SDS011;24035;48.900;9.188;2022-11-30T08:37:14;11.38;;;5.55;;
38238;SDS011;24035;48.900;9.188;2022-11-30T08:39:40;10.20;;;4.63;;
38238;SDS011;24035;48.900;9.188;2022-11-30T08:42:06;11.52;;;5.57;;
38238;SDS011;24035;48.900;9.188;2022-11-30T08:44:31;13.50;;;5.38;;
38238;SDS011;24035;48.900;9.188;2022-11-30T08:46:57;9.48;;;5.25;;
38238;SDS011;24035;48.900;9.188;2022-11-30T08:49:23;10.68;;;5.72;;
38238;SDS011;24035;48.900;9.188;2022-11-30T08:51:49;10.88;;;5.60;;
38238;SDS011;24035;48.900;9.188;2022-11-30T08:54:16;13.38;;;5.45;;
38238;SDS011;24035;48.900;9.188;2022-11-30T08:56:42;11.20;;;6.07;;
38238;SDS011;24035;48.900;9.188;2022-11-30T08:59:07;10.85;;;6.05;;
38238;SDS011;24035;48.900;9.188;2022-11-30T09:01:33;12.05;;;5.53;;
38238;SDS011;24035;48.900;9.188;2022-11-30T09:04:01;12.65;;;5.63;;
38238;SDS011;24035;48.900;9.188;2022-11-30T09:06:28;11.13;;;5.50;;
38238;SDS011;24035;48.900;9.188;2022-11-30T09:08:55;11.98;;;6.05;;
38238;SDS011;24035;48.900;9.188;2022-11-30T09:13:49;12.60;;;6.35;;
38238;SDS011;24035;48.900;9.188;2022-11-30T09:16:18;11.93;;;5.40;;
38238;SDS011;24035;48.900;9.188;2022-11-30T09:18:45;11.10;;;5.82;;
38238;SDS011;24035;48.900;9.188;2022-11-30T09:21:15;12.18;;;5.70;;
38238;SDS011;24035;48.900;9.188;2022-11-30T09:23:43;11.70;;;5.88;;
38238;SDS011;24035;48.900;9.188;2022-11-30T09:26:11;12.02;;;5.82;;
38238;SDS011;24035;48.900;9.188;2022-11-30T09:28:38;13.70;;;6.68;;
38238;SDS011;24035;48.900;9.188;2022-11-30T09:31:21;11.35;;;5.63;;
38238;SDS011;24035;48.900;9.188;2022-11-30T09:33:48;16.15;;;5.97;;
38238;SDS011;24035;48.900;9.188;2022-11-30T09:36:15;14.02;;;6.25;;
38238;SDS011;24035;48.900;9.188;2022-11-30T09:38:43;11.73;;;5.95;;
38238;SDS011;24035;48.900;9.188;2022-11-30T09:46:26;12.07;;;5.90;;
38238;SDS011;24035;48.900;9.188;2022-11-30T09:49:17;12.18;;;5.95;;
38238;SDS011;24035;48.900;9.188;2022-11-30T09:51:52;13.18;;;6.32;;
38238;SDS011;24035;48.900;9.188;2022-11-30T09:59:55;14.13;;;6.43;;
38238;SDS011;24035;48.900;9.188;2022-11-30T10:02:27;13.43;;;6.70;;
38238;SDS011;24035;48.900;9.188;2022-11-30T10:04:58;13.02;;;6.82;;
38238;SDS011;24035;48.900;9.188;2022-11-30T10:24:55;17.10;;;6.80;;
38238;SDS011;24035;48.900;9.188;2022-11-30T10:30:24;14.48;;;6.85;;
38238;SDS011;24035;48.900;9.188;2022-11-30T10:32:57;13.27;;;5.78;;
38238;SDS011;24035;48.900;9.188;2022-11-30T10:35:33;11.85;;;6.68;;
38238;SDS011;24035;48.900;9.188;2022-11-30T10:38:14;14.77;;;7.43;;
38238;SDS011;24035;48.900;9.188;2022-11-30T10:40:47;18.00;;;6.95;;
38238;SDS011;24035;48.900;9.188;2022-11-30T10:43:27;15.32;;;6.82;;
38238;SDS011;24035;48.900;9.188;2022-11-30T10:45:56;15.35;;;7.95;;
38238;SDS011;24035;48.900;9.188;2022-11-30T10:51:10;12.23;;;6.13;;
38238;SDS011;24035;48.900;9.188;2022-11-30T10:53:36;13.63;;;6.47;;
38238;SDS011;24035;48.900;9.188;2022-11-30T10:56:07;13.60;;;6.97;;
38238;SDS011;24035;48.900;9.188;2022-11-30T11:03:36;13.10;;;6.53;;
38238;SDS011;24035;48.900;9.188;2022-11-30T11:06:13;12.60;;;5.97;;
38238;SDS011;24035;48.900;9.188;2022-11-30T11:08:44;11.50;;;5.70;;
38238;SDS011;24035;48.900;9.188;2022-11-30T11:14:15;11.63;;;6.15;;
38238;SDS011;24035;48.900;9.188;2022-11-30T11:16:50;13.07;;;6.32;;
38238;SDS011;24035;48.900;9.188;2022-11-30T11:19:37;12.38;;;5.68;;
38238;SDS011;24035;48.900;9.188;2022-11-30T11:24:40;12.18;;;6.13;;
38238;SDS011;24035;48.900;9.188;2022-11-30T11:27:09;11.88;;;6.13;;
38238;SDS011;24035;48.900;9.188;2022-11-30T11:30:04;11.88;;;5.93;;
38238;SDS011;24035;48.900;9.188;2022-11-30T11:32:33;13.65;;;6.57;;
38238;SDS011;24035;48.900;9.188;2022-11-30T11:34:59;13.52;;;6.47;;
38238;SDS011;24035;48.900;9.188;2022-11-30T11:45:17;12.63;;;6.75;;
38238;SDS011;24035;48.900;9.188;2022-11-30T11:48:00;13.45;;;6.43;;
38238;SDS011;24035;48.900;9.188;2022-11-30T11:50:32;13.18;;;5.55;;
38238;SDS011;24035;48.900;9.188;2022-11-30T11:53:10;11.80;;;5.75;;
38238;SDS011;24035;48.900;9.188;2022-11-30T11:55:56;12.55;;;5.38;;
38238;SDS011;24035;48.900;9.188;2022-11-30T11:58:37;13.20;;;6.00;;
38238;SDS011;24035;48.900;9.188;2022-11-30T12:01:11;11.98;;;4.72;;
38238;SDS011;24035;48.900;9.188;2022-11-30T12:03:56;11.93;;;5.25;;
38238;SDS011;24035;48.900;9.188;2022-11-30T12:06:31;10.77;;;5.35;;
38238;SDS011;24035;48.900;9.188;2022-11-30T12:09:07;12.98;;;5.43;;
38238;SDS011;24035;48.900;9.188;2022-11-30T12:11:43;13.98;;;5.43;;
38238;SDS011;24035;48.900;9.188;2022-11-30T12:14:12;11.85;;;5.40;;
38238;SDS011;24035;48.900;9.188;2022-11-30T12:30:21;11.85;;;5.03;;
38238;SDS011;24035;48.900;9.188;2022-11-30T12:32:54;10.52;;;4.82;;
38238;SDS011;24035;48.900;9.188;2022-11-30T12:38:22;10.35;;;5.22;;
38238;SDS011;24035;48.900;9.188;2022-11-30T12:41:48;12.20;;;5.25;;
38238;SDS011;24035;48.900;9.188;2022-11-30T12:46:43;10.43;;;5.38;;
38238;SDS011;24035;48.900;9.188;2022-11-30T12:51:52;11.38;;;5.65;;
38238;SDS011;24035;48.900;9.188;2022-11-30T12:57:12;11.65;;;5.20;;
38238;SDS011;24035;48.900;9.188;2022-11-30T12:59:51;10.80;;;5.75;;
38238;SDS011;24035;48.900;9.188;2022-11-30T13:06:06;12.13;;;6.03;;
38238;SDS011;24035;48.900;9.188;2022-11-30T13:10:47;11.00;;;5.05;;
38238;SDS011;24035;48.900;9.188;2022-11-30T13:13:19;11.55;;;5.10;;
38238;SDS011;24035;48.900;9.188;2022-11-30T13:15:49;13.30;;;5.63;;
38238;SDS011;24035;48.900;9.188;2022-11-30T13:18:17;13.27;;;5.07;;
38238;SDS011;24035;48.900;9.188;2022-11-30T13:21:04;9.68;;;4.45;;
38238;SDS011;24035;48.900;9.188;2022-11-30T13:23:38;10.82;;;4.47;;
38238;SDS011;24035;48.900;9.188;2022-11-30T13:29:23;10.52;;;4.93;;
38238;SDS011;24035;48.900;9.188;2022-11-30T13:32:10;10.98;;;5.40;;
38238;SDS011;24035;48.900;9.188;2022-11-30T13:34:38;8.55;;;4.45;;
38238;SDS011;24035;48.900;9.188;2022-11-30T13:37:37;9.10;;;5.40;;
38238;SDS011;24035;48.900;9.188;2022-11-30T13:39:57;10.15;;;4.72;;
38238;SDS011;24035;48.900;9.188;2022-11-30T13:42:29;8.75;;;4.35;;
38238;SDS011;24035;48.900;9.188;2022-11-30T13:47:36;10.52;;;5.13;;
38238;SDS011;24035;48.900;9.188;2022-11-30T13:50:08;12.55;;;5.38;;
38238;SDS011;24035;48.900;9.188;2022-11-30T13:55:57;10.15;;;4.82;;
38238;SDS011;24035;48.900;9.188;2022-11-30T13:58:16;10.95;;;4.70;;
38238;SDS011;24035;48.900;9.188;2022-11-30T14:00:45;10.35;;;4.53;;
38238;SDS011;24035;48.900;9.188;2022-11-30T14:03:25;10.68;;;4.97;;
38238;SDS011;24035;48.900;9.188;2022-11-30T14:05:53;9.43;;;4.65;;
38238;SDS011;24035;48.900;9.188;2022-11-30T14:15:51;11.25;;;4.85;;
38238;SDS011;24035;48.900;9.188;2022-11-30T14:20:47;11.57;;;5.30;;
38238;SDS011;24035;48.900;9.188;2022-11-30T14:23:18;11.45;;;5.22;;
38238;SDS011;24035;48.900;9.188;2022-11-30T14:25:54;9.55;;;4.57;;
38238;SDS011;24035;48.900;9.188;2022-11-30T14:28:24;12.73;;;5.22;;
38238;SDS011;24035;48.900;9.188;2022-11-30T14:30:55;9.95;;;4.95;;
38238;SDS011;24035;48.900;9.188;2022-11-30T14:33:23;10.23;;;4.82;;
38238;SDS011;24035;48.900;9.188;2022-11-30T14:35:54;10.05;;;5.07;;
38238;SDS011;24035;48.900;9.188;2022-11-30T14:38:28;10.13;;;5.13;;
38238;SDS011;24035;48.900;9.188;2022-11-30T14:40:55;10.65;;;4.47;;
38238;SDS011;24035;48.900;9.188;2022-11-30T14:43:21;10.50;;;5.40;;
38238;SDS011;24035;48.900;9.188;2022-11-30T14:45:58;10.95;;;4.50;;
38238;SDS011;24035;48.900;9.188;2022-11-30T14:48:25;10.07;;;4.88;;
38238;SDS011;24035;48.900;9.188;2022-11-30T14:50:52;10.50;;;5.00;;
38238;SDS011;24035;48.900;9.188;2022-11-30T14:56:01;11.82;;;5.07;;
38238;SDS011;24035;48.900;9.188;2022-11-30T14:58:31;10.98;;;4.85;;
38238;SDS011;24035;48.900;9.188;2022-11-30T15:01:19;14.10;;;5.75;;
38238;SDS011;24035;48.900;9.188;2022-11-30T15:03:49;11.43;;;5.30;;
38238;SDS011;24035;48.900;9.188;2022-11-30T15:06:18;11.35;;;4.82;;
38238;SDS011;24035;48.900;9.188;2022-11-30T15:08:47;10.68;;;5.25;;
38238;SDS011;24035;48.900;9.188;2022-11-30T15:11:17;13.45;;;5.13;;
38238;SDS011;24035;48.900;9.188;2022-11-30T15:13:45;13.88;;;5.40;;
38238;SDS011;24035;48.900;9.188;2022-11-30T15:16:17;9.75;;;5.18;;
38238;SDS011;24035;48.900;9.188;2022-11-30T15:18:50;11.70;;;5.40;;
38238;SDS011;24035;48.900;9.188;2022-11-30T15:21:18;13.13;;;5.95;;
38238;SDS011;24035;48.900;9.188;2022-11-30T15:23:55;16.15;;;6.68;;
38238;SDS011;24035;48.900;9.188;2022-11-30T15:26:40;13.75;;;6.30;;
38238;SDS011;24035;48.900;9.188;2022-11-30T15:31:59;12.90;;;5.95;;
38238;SDS011;24035;48.900;9.188;2022-11-30T15:34:44;15.25;;;6.90;;
38238;SDS011;24035;48.900;9.188;2022-11-30T15:37:13;13.82;;;6.45;;
38238;SDS011;24035;48.900;9.188;2022-11-30T15:39:39;15.18;;;7.22;;
38238;SDS011;24035;48.900;9.188;2022-11-30T15:42:17;17.85;;;8.00;;
38238;SDS011;24035;48.900;9.188;2022-11-30T15:44:48;13.50;;;6.72;;
38238;SDS011;24035;48.900;9.188;2022-11-30T15:47:23;14.15;;;7.28;;
38238;SDS011;24035;48.900;9.188;2022-11-30T15:49:52;14.55;;;7.57;;
38238;SDS011;24035;48.900;9.188;2022-11-30T15:52:23;15.65;;;8.30;;
38238;SDS011;24035;48.900;9.188;2022-11-30T15:57:22;17.60;;;8.65;;
38238;SDS011;24035;48.900;9.188;2022-11-30T16:02:37;20.70;;;8.55;;
38238;SDS011;24035;48.900;9.188;2022-11-30T16:07:46;16.55;;;7.70;;
38238;SDS011;24035;48.900;9.188;2022-11-30T16:10:15;15.98;;;8.15;;
38238;SDS011;24035;48.900;9.188;2022-11-30T16:12:46;17.40;;;8.35;;
38238;SDS011;24035;48.900;9.188;2022-11-30T16:15:27;17.98;;;8.77;;
38238;SDS011;24035;48.900;9.188;2022-11-30T16:17:55;16.13;;;8.23;;
38238;SDS011;24035;48.900;9.188;2022-11-30T16:20:23;20.20;;;8.73;;
38238;SDS011;24035;48.900;9.188;2022-11-30T16:22:49;19.90;;;9.35;;
38238;SDS011;24035;48.900;9.188;2022-11-30T16:25:17;17.73;;;8.45;;
38238;SDS011;24035;48.900;9.188;2022-11-30T16:27:47;16.75;;;8.70;;
38238;SDS011;24035;48.900;9.188;2022-11-30T16:30:15;19.90;;;8.88;;
38238;SDS011;24035;48.900;9.188;2022-11-30T16:32:42;18.80;;;8.27;;
38238;SDS011;24035;48.900;9.188;2022-11-30T16:35:55;19.35;;;9.07;;
38238;SDS011;24035;48.900;9.188;2022-11-30T16:38:21;18.17;;;8.77;;
38238;SDS011;24035;48.900;9.188;2022-11-30T16:40:48;16.50;;;7.82;;
38238;SDS011;24035;48.900;9.188;2022-11-30T16:43:14;18.27;;;8.18;;
38238;SDS011;24035;48.900;9.188;2022-11-30T16:45:40;16.80;;;8.18;;
38238;SDS011;24035;48.900;9.188;2022-11-30T16:48:08;14.68;;;8.10;;
38238;SDS011;24035;48.900;9.188;2022-11-30T16:50:34;17.00;;;8.65;;
38238;SDS011;24035;48.900;9.188;2022-11-30T16:53:00;16.92;;;8.18;;
38238;SDS011;24035;48.900;9.188;2022-11-30T16:55:30;16.30;;;8.48;;
38238;SDS011;24035;48.900;9.188;2022-11-30T16:57:58;17.30;;;8.32;;
38238;SDS011;24035;48.900;9.188;2022-11-30T17:00:24;17.63;;;8.52;;
38238;SDS011;24035;48.900;9.188;2022-11-30T17:05:42;13.85;;;7.18;;
38238;SDS011;24035;48.900;9.188;2022-11-30T17:08:08;12.98;;;6.20;;
38238;SDS011;24035;48.900;9.188;2022-11-30T17:10:35;15.07;;;7.35;;
38238;SDS011;24035;48.900;9.188;2022-11-30T17:13:02;11.90;;;5.93;;
38238;SDS011;24035;48.900;9.188;2022-11-30T17:15:27;15.77;;;6.97;;